createdAt,value
2022-11-13T00:00:09.435Z,25.05
2022-11-13T00:03:11.236Z,21.83
2022-11-13T00:06:14.234Z,22.60
2022-11-13T00:09:16.232Z,21.40
2022-11-13T00:12:17.996Z,24.13
2022-11-13T00:15:20.389Z,22.15
2022-11-13T00:18:22.190Z,24.95
2022-11-13T00:21:27.223Z,26.42
2022-11-13T00:24:29.033Z,25.05
2022-11-13T00:27:32.081Z,22.60
2022-11-13T00:30:33.902Z,22.75
2022-11-13T00:34:05.202Z,27.23
2022-11-13T00:36:58.369Z,19.73
2022-11-13T00:40:00.803Z,19.33
2022-11-13T00:43:02.701Z,19.15
2022-11-13T00:46:04.859Z,19.02
2022-11-13T00:49:06.746Z,19.60
2022-11-13T00:52:08.472Z,24.58
2022-11-13T00:55:10.230Z,23.30
2022-11-13T00:58:13.103Z,26.48
2022-11-13T01:01:18.032Z,25.85
2022-11-13T01:04:19.926Z,20.40
2022-11-13T01:07:21.941Z,18.90
2022-11-13T01:10:25.147Z,21.38
2022-11-13T01:13:27.085Z,18.52
2022-11-13T01:16:28.961Z,18.80
2022-11-13T01:19:30.957Z,20.90
2022-11-13T01:22:32.681Z,17.42
2022-11-13T01:25:36.179Z,22.98
2022-11-13T01:28:39.306Z,20.13
2022-11-13T01:31:41.090Z,17.58
2022-11-13T01:34:42.803Z,18.52
2022-11-13T01:37:45.143Z,18.45
2022-11-13T01:40:47.645Z,20.33
2022-11-13T01:43:49.903Z,22.87
2022-11-13T01:46:56.876Z,24.45
2022-11-13T01:50:02.303Z,18.15
2022-11-13T01:53:05.221Z,20.52
2022-11-13T01:56:07.779Z,26.60
2022-11-13T01:59:15.071Z,31.90
2022-11-13T02:02:16.977Z,28.02
2022-11-13T02:05:18.910Z,24.60
2022-11-13T02:08:20.883Z,25.17
2022-11-13T02:11:22.869Z,24.95
2022-11-13T02:14:27.827Z,26.05
2022-11-13T02:17:47.058Z,21.92
2022-11-13T02:21:16.130Z,23.75
2022-11-13T02:24:31.008Z,20.35
2022-11-13T02:27:42.725Z,22.08
2022-11-13T02:30:44.579Z,23.45
2022-11-13T02:33:46.451Z,20.83
2022-11-13T02:36:48.718Z,19.38
2022-11-13T02:39:50.933Z,20.95
2022-11-13T02:42:52.822Z,20.92
2022-11-13T02:45:55.132Z,22.33
2022-11-13T02:48:57.187Z,18.45
2022-11-13T02:51:58.929Z,20.08
2022-11-13T02:55:00.697Z,16.45
2022-11-13T02:58:02.488Z,21.15
2022-11-13T03:01:04.490Z,18.30
2022-11-13T03:04:06.638Z,17.65
2022-11-13T03:07:08.765Z,23.40
2022-11-13T03:10:11.582Z,17.80
2022-11-13T03:13:13.428Z,16.80
2022-11-13T03:16:16.881Z,19.33
2022-11-13T03:19:18.711Z,18.25
2022-11-13T03:22:20.476Z,25.83
2022-11-13T03:25:22.390Z,18.40
2022-11-13T03:28:24.525Z,21.80
2022-11-13T03:31:26.423Z,18.67
2022-11-13T03:34:28.163Z,17.55
2022-11-13T03:37:29.875Z,16.60
2022-11-13T03:40:31.609Z,16.33
2022-11-13T03:43:33.347Z,19.85
2022-11-13T03:46:35.157Z,15.63
2022-11-13T03:49:36.931Z,17.83
2022-11-13T03:52:38.973Z,20.13
2022-11-13T03:55:41.112Z,20.15
2022-11-13T03:58:48.433Z,26.40
2022-11-13T04:01:51.328Z,48.35
2022-11-13T04:04:53.138Z,35.20
2022-11-13T04:07:55.113Z,21.48
2022-11-13T04:11:07.000Z,20.35
2022-11-13T04:14:09.127Z,21.45
2022-11-13T04:17:11.316Z,21.55
2022-11-13T04:20:13.090Z,21.90
2022-11-13T04:23:17.926Z,25.23
2022-11-13T04:26:19.847Z,22.00
2022-11-13T04:29:21.603Z,23.92
2022-11-13T04:32:23.758Z,21.38
2022-11-13T04:35:25.641Z,22.08
2022-11-13T04:38:28.174Z,14.07
2022-11-13T04:41:54.061Z,15.00
2022-11-13T04:44:57.070Z,15.98
2022-11-13T04:47:59.046Z,16.48
2022-11-13T04:51:00.842Z,14.60
2022-11-13T04:54:02.599Z,17.83
2022-11-13T04:57:04.592Z,14.20
2022-11-13T05:00:08.252Z,17.98
2022-11-13T05:03:10.011Z,16.77
2022-11-13T05:06:12.072Z,13.75
2022-11-13T05:09:14.234Z,13.05
2022-11-13T05:12:15.933Z,12.43
2022-11-13T05:15:17.833Z,11.95
2022-11-13T05:18:19.927Z,11.02
2022-11-13T05:21:21.719Z,11.90
2022-11-13T05:24:23.824Z,11.15
2022-11-13T05:27:25.761Z,11.55
2022-11-13T05:30:27.554Z,11.70
2022-11-13T05:33:29.342Z,12.27
2022-11-13T05:36:31.181Z,11.35
2022-11-13T05:39:33.648Z,14.23
2022-11-13T05:42:35.768Z,12.97
2022-11-13T05:45:37.678Z,11.25
2022-11-13T05:48:40.281Z,12.38
2022-11-13T05:51:42.085Z,14.98
2022-11-13T05:54:43.872Z,15.18
2022-11-13T05:57:45.794Z,13.55
2022-11-13T06:00:47.552Z,14.88
2022-11-13T06:03:50.415Z,12.27
2022-11-13T06:06:52.524Z,15.75
2022-11-13T06:09:54.287Z,21.05
2022-11-13T06:12:58.886Z,27.42
2022-11-13T06:16:09.222Z,44.88
2022-11-13T06:19:11.722Z,26.02
2022-11-13T06:22:13.796Z,18.90
2022-11-13T06:25:15.823Z,32.08
2022-11-13T06:28:17.540Z,16.77
2022-11-13T06:31:22.524Z,17.85
2022-11-13T06:34:24.358Z,14.45
2022-11-13T06:37:26.620Z,15.20
2022-11-13T06:40:28.465Z,15.30
2022-11-13T06:43:31.051Z,15.77
2022-11-13T06:46:32.834Z,15.20
2022-11-13T06:49:34.549Z,14.07
2022-11-13T06:52:36.610Z,12.93
2022-11-13T06:55:44.464Z,14.80
2022-11-13T06:58:46.198Z,16.48
2022-11-13T07:01:50.910Z,22.60
2022-11-13T07:04:52.597Z,22.00
2022-11-13T07:07:54.536Z,20.05
2022-11-13T07:10:57.470Z,17.15
2022-11-13T07:13:59.321Z,14.48
2022-11-13T07:17:10.069Z,15.90
2022-11-13T07:20:12.243Z,16.38
2022-11-13T07:23:14.225Z,14.30
2022-11-13T07:26:16.331Z,15.88
2022-11-13T07:29:18.273Z,14.80
2022-11-13T07:32:20.014Z,13.10
2022-11-13T07:35:21.769Z,18.05
2022-11-13T07:38:26.625Z,24.58
2022-11-13T07:41:28.858Z,29.15
2022-11-13T07:44:53.476Z,44.13
2022-11-13T07:47:52.637Z,44.08
2022-11-13T07:50:54.780Z,37.10
2022-11-13T07:53:57.084Z,33.00
2022-11-13T07:56:58.775Z,29.92
2022-11-13T08:00:00.582Z,29.33
2022-11-13T08:03:08.118Z,24.92
2022-11-13T08:06:10.576Z,25.70
2022-11-13T08:09:12.557Z,23.93
2022-11-13T08:12:14.288Z,17.55
2022-11-13T08:15:16.248Z,21.00
2022-11-13T08:18:17.980Z,17.67
2022-11-13T08:21:21.247Z,19.17
2022-11-13T08:27:24.995Z,29.88
2022-11-13T08:30:28.260Z,26.98
2022-11-13T08:36:32.562Z,32.65
2022-11-13T08:39:35.758Z,38.25
2022-11-13T08:42:37.904Z,29.70
2022-11-13T08:45:40.007Z,25.88
2022-11-13T08:48:41.765Z,23.92
2022-11-13T08:51:43.600Z,27.80
2022-11-13T08:54:45.558Z,34.85
2022-11-13T08:57:47.713Z,35.28
2022-11-13T09:00:49.668Z,38.25
2022-11-13T09:03:51.779Z,37.85
2022-11-13T09:06:53.774Z,43.10
2022-11-13T09:09:55.602Z,29.27
2022-11-13T09:13:05.572Z,39.55
2022-11-13T09:16:07.973Z,33.67
2022-11-13T09:19:09.788Z,50.58
2022-11-13T09:22:12.027Z,36.75
2022-11-13T09:25:13.750Z,32.03
2022-11-13T09:28:15.591Z,29.15
2022-11-13T09:31:17.673Z,26.63
2022-11-13T09:34:19.637Z,25.38
2022-11-13T09:37:21.791Z,26.42
2022-11-13T09:40:30.357Z,23.33
2022-11-13T09:43:59.987Z,23.17
2022-11-13T09:47:07.495Z,23.25
2022-11-13T09:50:22.949Z,22.70
2022-11-13T09:53:25.645Z,24.00
2022-11-13T09:56:43.288Z,22.77
2022-11-13T09:59:58.881Z,20.65
2022-11-13T10:03:00.550Z,24.27
2022-11-13T10:06:23.314Z,21.00
2022-11-13T10:09:27.807Z,20.65
2022-11-13T10:12:31.372Z,24.83
2022-11-13T10:15:34.396Z,24.63
2022-11-13T10:18:38.544Z,22.95
2022-11-13T10:21:45.534Z,16.15
2022-11-13T10:24:52.031Z,23.52
2022-11-13T10:28:00.158Z,19.05
2022-11-13T10:31:02.003Z,18.83
2022-11-13T10:34:03.909Z,15.95
2022-11-13T10:37:28.557Z,18.23
2022-11-13T10:40:38.619Z,17.48
2022-11-13T10:44:12.598Z,16.45
2022-11-13T10:47:36.498Z,18.48
2022-11-13T10:50:42.130Z,19.80
2022-11-13T10:53:44.153Z,13.02
2022-11-13T10:56:57.380Z,11.90
2022-11-13T10:59:59.473Z,13.98
2022-11-13T11:03:01.633Z,12.07
2022-11-13T11:06:05.182Z,14.85
2022-11-13T11:09:33.423Z,13.05
2022-11-13T11:12:35.184Z,15.50
2022-11-13T11:15:40.189Z,12.65
2022-11-13T11:19:04.649Z,11.48
2022-11-13T11:22:17.694Z,11.15
2022-11-13T11:25:40.790Z,12.65
2022-11-13T11:28:50.910Z,18.83
2022-11-13T11:32:02.227Z,11.68
2022-11-13T11:35:16.254Z,18.33
2022-11-13T11:38:28.671Z,21.60
2022-11-13T11:41:38.313Z,12.53
2022-11-13T11:44:49.663Z,13.85
2022-11-13T11:47:53.477Z,10.23
2022-11-13T11:51:19.236Z,12.52
2022-11-13T11:54:53.472Z,15.27
2022-11-13T11:58:16.312Z,12.80
2022-11-13T12:01:33.273Z,10.63
2022-11-13T12:05:03.601Z,11.35
2022-11-13T12:08:23.834Z,8.00
2022-11-13T12:11:32.052Z,9.88
2022-11-13T12:14:48.678Z,11.20
2022-11-13T12:18:04.068Z,10.85
2022-11-13T12:21:28.274Z,9.90
2022-11-13T12:24:57.694Z,9.98
2022-11-13T12:28:11.278Z,11.88
2022-11-13T12:31:39.340Z,10.07
2022-11-13T12:34:52.342Z,11.32
2022-11-13T12:38:00.278Z,12.45
2022-11-13T12:41:26.322Z,13.30
2022-11-13T12:44:29.605Z,12.63
2022-11-13T12:47:33.995Z,11.63
2022-11-13T12:50:36.319Z,11.88
2022-11-13T12:53:47.982Z,12.80
2022-11-13T12:56:49.938Z,10.70
2022-11-13T13:00:00.718Z,12.38
2022-11-13T13:03:16.527Z,11.60
2022-11-13T13:06:24.185Z,10.52
2022-11-13T13:09:54.718Z,7.93
2022-11-13T13:12:59.655Z,10.10
2022-11-13T13:16:06.927Z,8.00
2022-11-13T13:19:28.417Z,7.68
2022-11-13T13:22:35.208Z,16.17
2022-11-13T13:25:37.488Z,9.40
2022-11-13T13:28:41.709Z,9.25
2022-11-13T13:32:10.068Z,9.00
2022-11-13T13:35:19.185Z,8.63
2022-11-13T13:38:34.150Z,10.20
2022-11-13T13:41:58.332Z,10.70
2022-11-13T13:45:03.308Z,9.70
2022-11-13T13:48:15.380Z,9.02
2022-11-13T13:51:27.605Z,16.27
2022-11-13T13:54:32.783Z,11.35
2022-11-13T13:57:41.195Z,13.23
2022-11-13T14:01:05.148Z,14.05
2022-11-13T14:04:22.453Z,9.32
2022-11-13T14:07:29.581Z,8.82
2022-11-13T14:10:31.502Z,9.98
2022-11-13T14:13:33.399Z,9.88
2022-11-13T14:16:46.019Z,8.60
2022-11-13T14:19:52.521Z,8.88
2022-11-13T14:22:56.529Z,9.13
2022-11-13T14:25:59.434Z,6.82
2022-11-13T14:29:02.997Z,8.73
2022-11-13T14:32:14.308Z,10.18
2022-11-13T14:35:22.609Z,11.73
2022-11-13T14:38:28.873Z,10.52
2022-11-13T14:41:45.745Z,13.35
2022-11-13T14:44:48.189Z,9.32
2022-11-13T14:48:00.066Z,8.05
2022-11-13T14:51:07.026Z,7.80
2022-11-13T14:54:46.814Z,11.52
2022-11-13T14:57:52.604Z,7.65
2022-11-13T15:00:56.735Z,6.97
2022-11-13T15:03:58.639Z,9.60
2022-11-13T15:07:01.852Z,22.13
2022-11-13T15:10:04.106Z,71.07
2022-11-13T15:13:14.763Z,69.05
2022-11-13T15:16:21.739Z,75.28
2022-11-13T15:19:35.306Z,76.25
2022-11-13T15:22:38.692Z,55.53
2022-11-13T15:25:40.499Z,52.05
2022-11-13T15:28:42.178Z,51.15
2022-11-13T15:31:46.275Z,19.95
2022-11-13T15:34:48.048Z,36.33
2022-11-13T15:37:50.975Z,49.95
2022-11-13T15:40:53.194Z,37.88
2022-11-13T15:43:56.428Z,18.05
2022-11-13T15:46:58.127Z,16.60
2022-11-13T15:50:17.129Z,18.00
2022-11-13T15:53:19.003Z,19.30
2022-11-13T15:56:20.810Z,11.82
2022-11-13T15:59:22.738Z,9.77
2022-11-13T16:02:24.665Z,17.52
2022-11-13T16:05:29.300Z,13.73
2022-11-13T16:08:31.400Z,12.55
2022-11-13T16:11:34.487Z,14.32
2022-11-13T16:14:36.381Z,9.90
2022-11-13T16:17:42.106Z,8.10
2022-11-13T16:20:44.019Z,8.70
2022-11-13T16:23:45.954Z,7.60
2022-11-13T16:26:55.806Z,11.38
2022-11-13T16:29:59.995Z,8.63
2022-11-13T16:33:09.322Z,9.02
2022-11-13T16:36:20.665Z,10.05
2022-11-13T16:39:22.559Z,10.68
2022-11-13T16:42:29.779Z,9.88
2022-11-13T16:45:32.751Z,14.02
2022-11-13T16:48:34.656Z,17.52
2022-11-13T16:51:36.840Z,16.48
2022-11-13T16:54:38.515Z,13.48
2022-11-13T16:57:40.494Z,12.25
2022-11-13T17:00:42.298Z,10.30
2022-11-13T17:03:44.582Z,9.43
2022-11-13T17:06:47.152Z,10.75
2022-11-13T17:09:58.854Z,9.07
2022-11-13T17:13:06.190Z,10.57
2022-11-13T17:16:11.580Z,8.73
2022-11-13T17:19:14.387Z,12.00
2022-11-13T17:22:17.086Z,10.52
2022-11-13T17:25:20.489Z,11.40
2022-11-13T17:31:24.059Z,9.07
2022-11-13T17:34:26.191Z,17.05
2022-11-13T17:37:28.973Z,59.80
2022-11-13T17:40:30.714Z,38.88
2022-11-13T17:43:35.904Z,25.85
2022-11-13T17:46:37.770Z,21.23
2022-11-13T17:49:39.733Z,26.45
2022-11-13T17:52:41.608Z,30.73
2022-11-13T17:55:43.293Z,34.20
2022-11-13T17:58:46.580Z,37.60
2022-11-13T18:01:48.527Z,27.77
2022-11-13T18:04:50.612Z,45.83
2022-11-13T18:07:52.311Z,39.85
2022-11-13T18:10:54.133Z,36.33
2022-11-13T18:13:55.952Z,27.75
2022-11-13T18:16:57.632Z,23.52
2022-11-13T18:20:01.950Z,45.20
2022-11-13T18:23:04.718Z,48.67
2022-11-13T18:26:12.134Z,24.20
2022-11-13T18:29:14.007Z,28.80
2022-11-13T18:32:16.316Z,26.73
2022-11-13T18:35:18.115Z,17.02
2022-11-13T18:38:20.254Z,18.80
2022-11-13T18:41:23.321Z,14.55
2022-11-13T18:44:25.242Z,13.90
2022-11-13T18:47:26.998Z,15.00
2022-11-13T18:50:28.732Z,15.45
2022-11-13T18:53:31.093Z,10.70
2022-11-13T18:56:33.413Z,9.07
2022-11-13T18:59:35.220Z,9.18
2022-11-13T19:02:36.896Z,9.30
2022-11-13T19:05:43.517Z,8.95
2022-11-13T19:08:46.246Z,15.30
2022-11-13T19:11:50.215Z,15.52
2022-11-13T19:14:51.925Z,9.00
2022-11-13T19:17:53.609Z,7.38
2022-11-13T19:20:55.530Z,8.65
2022-11-13T19:23:58.530Z,7.85
2022-11-13T19:27:00.329Z,6.07
2022-11-13T19:30:02.365Z,18.08
2022-11-13T19:33:04.267Z,12.65
2022-11-13T19:36:10.784Z,10.07
2022-11-13T19:39:13.691Z,6.72
2022-11-13T19:42:15.501Z,8.95
2022-11-13T19:45:17.304Z,7.95
2022-11-13T19:48:19.373Z,7.50
2022-11-13T19:51:23.636Z,10.48
2022-11-13T19:54:25.578Z,11.90
2022-11-13T19:57:27.551Z,17.65
2022-11-13T20:00:29.321Z,17.75
2022-11-13T20:03:31.667Z,21.95
2022-11-13T20:06:33.534Z,40.05
2022-11-13T20:09:35.385Z,37.15
2022-11-13T20:12:37.208Z,27.75
2022-11-13T20:15:38.926Z,20.00
2022-11-13T20:18:41.807Z,14.25
2022-11-13T20:21:43.731Z,12.73
2022-11-13T20:24:45.462Z,11.98
2022-11-13T20:27:47.739Z,14.32
2022-11-13T20:30:50.488Z,16.55
2022-11-13T20:33:54.425Z,14.80
2022-11-13T20:36:56.792Z,16.23
2022-11-13T20:39:59.525Z,23.25
2022-11-13T20:43:01.369Z,107.90
2022-11-13T20:46:09.319Z,92.70
2022-11-13T20:49:11.030Z,56.75
2022-11-13T20:52:12.950Z,31.95
2022-11-13T20:55:14.716Z,28.13
2022-11-13T20:58:16.438Z,67.38
2022-11-13T21:01:20.856Z,23.20
2022-11-13T21:04:22.665Z,14.73
2022-11-13T21:07:24.719Z,11.88
2022-11-13T21:10:26.540Z,10.20
2022-11-13T21:13:29.029Z,15.00
2022-11-13T21:16:31.447Z,10.43
2022-11-13T21:19:33.450Z,12.43
2022-11-13T21:22:35.228Z,10.52
2022-11-13T21:25:37.312Z,11.60
2022-11-13T21:28:39.758Z,14.77
2022-11-13T21:31:41.797Z,12.20
2022-11-13T21:34:43.601Z,14.88
2022-11-13T21:37:45.826Z,14.73
2022-11-13T21:41:08.085Z,13.32
2022-11-13T21:44:11.070Z,12.20
2022-11-13T21:47:13.093Z,12.20
2022-11-13T21:50:15.089Z,13.13
2022-11-13T21:53:17.047Z,12.25
2022-11-13T21:56:19.073Z,11.88
2022-11-13T21:59:21.050Z,16.30
2022-11-13T22:02:23.080Z,14.15
2022-11-13T22:05:24.873Z,14.98
2022-11-13T22:08:26.933Z,14.32
2022-11-13T22:11:34.272Z,14.35
2022-11-13T22:14:36.252Z,15.93
2022-11-13T22:17:38.096Z,16.17
2022-11-13T22:20:40.023Z,13.63
2022-11-13T22:23:42.030Z,17.25
2022-11-13T22:26:50.416Z,19.27
2022-11-13T22:29:52.165Z,15.10
2022-11-13T22:32:54.138Z,10.93
2022-11-13T22:36:05.215Z,9.88
2022-11-13T22:39:07.387Z,10.02
2022-11-13T22:42:09.122Z,10.15
2022-11-13T22:45:23.369Z,12.10
2022-11-13T22:48:26.217Z,13.27
2022-11-13T22:51:31.386Z,11.63
2022-11-13T22:54:33.067Z,10.02
2022-11-13T22:57:34.877Z,12.35
2022-11-13T23:00:36.753Z,11.77
2022-11-13T23:03:39.979Z,13.02
2022-11-13T23:09:44.675Z,12.55
2022-11-13T23:12:46.393Z,13.23
2022-11-13T23:15:48.193Z,14.85
2022-11-13T23:18:51.630Z,14.25
2022-11-13T23:24:56.314Z,13.52
2022-11-13T23:27:58.069Z,14.48
2022-11-13T23:30:59.961Z,14.45
2022-11-13T23:34:03.217Z,15.60
2022-11-13T23:37:05.450Z,16.77
2022-11-13T23:40:08.119Z,22.50
2022-11-13T23:43:10.211Z,12.27
2022-11-13T23:46:12.172Z,22.95
2022-11-13T23:49:14.017Z,17.55
2022-11-13T23:52:15.861Z,15.07
2022-11-13T23:55:18.357Z,15.25
2022-11-13T23:58:20.242Z,12.60
